Terminal Aerodrome Forecast
Issued by NWS

Home | Current Version | Previous Version | Text Only | Print | Product List | Glossary On
Versions: 1 2 3 4 5 6 7 8 9 10 11 12 13 14 15 16 17 18
000
FTUS43 KGRR 220200 AAA
TAFJXN
TAF AMD
KJXN 220203Z 2202/2224 02004KT P6SM SCT050
     FM221000 03003KT P6SM BKN025
     FM221400 03006KT P6SM FEW035=

USA.gov is the U.S. government's official web portal to all federal, state and local government web resources and services.